F/V Argentario — FGPE — position and weather

sailwx.info

Track history (hours):
 
Tides and Currents Weather Stations Pressure Air Temp Water Temp Dewpoint Dewpoint Depression Visibility Wind Speed Wind Dir Waves Ship Positions

F/V Argentario

Last reported at 2014-Jul-23 02:32 UTC. Time now 2014-Jul-24 02:02 UTC.
Position N 46°40' W 002°12'.

Length 22 m; draft 3.4 m.

Type: Fishing. MMSI: 228975000.

Date/timePositionNaut miles runAvg speedWind from/ knotsBaromVisibWave heightAir tempDewpointWater temp
2014-Jul-23 02:32N 46°40' W 002°12'8 7.9
2014-Jul-23 01:33N 46°35' W 002°03'8 7.6
2014-Jul-23 00:33N 46°30' W 001°55'5 4.9
2014-Jul-22 23:33N 46°30' W 001°47'0 0.2
2014-Jul-22 22:33N 46°30' W 001°47'1 1.2
2014-Jul-22 21:33N 46°29' W 001°47'8 8.1
2014-Jul-22 20:33N 46°27' W 001°59'8 8.2
2014-Jul-22 19:33N 46°25' W 002°10'8 8.1
2014-Jul-22 18:33N 46°23' W 002°22'8 8.1
2014-Jul-22 17:33N 46°21' W 002°33'8 7.9
2014-Jul-22 16:32N 46°19' W 002°45'  
2014-Jul-17 17:25N 45°55' W 003°52'3 3.1
2014-Jul-17 16:33N 45°57' W 003°55'80 1.7
2014-Jul-15 17:32N 46°45' W 002°22'2 1.4
2014-Jul-15 16:24N 46°44' W 002°21'  
Track history (hours):
 
Tides and Currents Weather Stations Pressure Air Temp Water Temp Dewpoint Dewpoint Depression Visibility Wind Speed Wind Dir Waves Ship Positions

F/V Argentario

Last reported at 2014-Jul-23 02:32 UTC. Time now 2014-Jul-24 02:02 UTC.
Position N 46°40' W 002°12'.

Length 22 m; draft 3.4 m.

Type: Fishing. MMSI: 228975000.

Date/timePositionNaut miles runAvg speedWind from/ knotsBaromVisibWave heightAir tempDewpointWater temp
2014-Jul-23 02:32N 46°40' W 002°12'8 7.9
2014-Jul-23 01:33N 46°35' W 002°03'8 7.6
2014-Jul-23 00:33N 46°30' W 001°55'5 4.9
2014-Jul-22 23:33N 46°30' W 001°47'0 0.2
2014-Jul-22 22:33N 46°30' W 001°47'1 1.2
2014-Jul-22 21:33N 46°29' W 001°47'8 8.1
2014-Jul-22 20:33N 46°27' W 001°59'8 8.2
2014-Jul-22 19:33N 46°25' W 002°10'8 8.1
2014-Jul-22 18:33N 46°23' W 002°22'8 8.1
2014-Jul-22 17:33N 46°21' W 002°33'8 7.9
2014-Jul-22 16:32N 46°19' W 002°45'  
2014-Jul-17 17:25N 45°55' W 003°52'3 3.1
2014-Jul-17 16:33N 45°57' W 003°55'80 1.7
2014-Jul-15 17:32N 46°45' W 002°22'2 1.4
2014-Jul-15 16:24N 46°44' W 002°21'  

Dump ship's entire track history